Cumberland Furnace, Tennessee
Current Conditions -  °F | °C
As of 12:52 AM on Friday 28 Nov 2014 (Local Time) from KCKV Reporting Station
Clear Clear  
Wind Chill: 25°   Ceiling: Unl
Heat Index: 25°   Visibility: 7mi
Dew Point: 22°   Wind: 3mph
Humidity: 88%   Direction: 140°SE
Pressure: 30.44"   Gusts: NA
Location:  36.27°N, 87.36°W
Report Text: KCKV 280652Z AUTO 14003KT 7SM CLR M04/M06 A3044 RMK AO2 SLP314 T10391056
Loading
Personal Weather Stations






























Interactive Weather Map New forecast layout! Learn more

10-Day Weather Forecast

Advertisements
Track Severe Weather on mobile